Strona główna
METAR-TAF:

METAR-TAF

Lotnisko :

Scampton, Anglia

Szerokość geograficzna: 53-18-27N, Długość geograficzna: 000-33-03W, wysokość: 62 m

Aktualna obserwacja pogody

Raport powstał 27 minut temu, godzina 11:50 UTC
Wiatr 2 kt od północ
Temperatura 6°C
Wilgotność 87%
Ciśnienie 1019 hPa
Widzialność 10 km lub więcej
Mało chmury na wysokości 4800 ft

METAR: EGXP 271150Z 36002KT 9999 FEW048 06/04 Q1019

czas: 12:17 (12:17 UTC)

Prognoza

Raport powstał 1 godzina i 50 minut temu, godzina 10:27 UTC
Prognoza ważna od 27 godzina 10 UTC do 27 godzina 17 UTC
Wiatr 5 kt z kierunków zmiennych
Widzialność 10 km lub więcej
Rozproszone chmury na wysokości 4500 ft
Stopniowe zmiany
od 27 godzina 15 UTC do 27 godzina 17 UTC
Widzialność: 6000 m
zamglenie

TAF: EGXP 271027Z 2710/2717 VRB05KT 9999 SCT045 BECMG 2715/2717 6000 BR

Obserwacja i prognoza pogody dla ponad 4000 lotnisk (raport METAR i TAF).

Dostępne stacje oznaczono żółtymi i czerwonymi punktami na mapie.

Najedź kursorem aby zobaczyć nazwę stacji.

Kliknij aby zobaczyć obserwacje i prognozy pogody.

Aby zmienić mapę: kliknij na zielony przycisk z czarnym krzyżykiem, aby powiększyć; na zielony przycisk z myślnikiem, aby pomniejszyć; na zielone strzałki, aby przejść do map sąsiednich.


METAR-TAF: